Time;durP1;ratioP1;P1;durP2;ratioP2;P2;SDS_P1;SDS_P2;PMS_P1;PMS_P2;Temp;Humidity;BMP_temperature;BMP_pressure;BME280_temperature;BME280_humidity;BME280_pressure;Samples;Min_cycle;Max_cycle;Signal;HPM_P1;HPM_P2
2023/12/09 00:00:25;;;;;;;;;;;;;;;;;;4929382;28;19930;-70
2023/12/09 00:02:51;;;;;;;;;;;;;;;;;;4910761;28;19925;-72
2023/12/09 00:05:16;;;;;;;;;;;;;;;;;;4910170;28;19922;-72
2023/12/09 00:07:42;;;;;;;;;;;;;;;;;;4930636;28;19933;-72
2023/12/09 00:16:39;;;;;;;;;;;;;;;;;;4922186;28;19929;-74
2023/12/09 00:19:07;;;;;;;;;;;;;;;;;;4926185;28;19948;-72
2023/12/09 00:21:32;;;;;;;;;;;;;;;;;;4895933;29;19922;-71
2023/12/09 00:23:59;;;;;;;;;;;;;;;;;;4928277;28;19929;-72
2023/12/09 00:26:24;;;;;;;;;;;;;;;;;;4923310;28;19976;-71
2023/12/09 00:28:50;;;;;;;;;;;;;;;;;;4929795;28;19922;-72
2023/12/09 00:31:15;;;;;;;;;;;;;;;;;;4911531;28;19956;-72
2023/12/09 00:33:41;;;;;;;;;;;;;;;;;;4927313;28;20363;-73
2023/12/09 00:36:07;;;;;;;;;;;;;;;;;;4906638;29;19930;-72
2023/12/09 00:38:32;;;;;;;;;;;;;;;;;;4897853;28;20339;-70
2023/12/09 00:41:00;;;;;;;;;;;;;;;;;;4927756;28;19918;-72
2023/12/09 00:43:25;;;;;;;;;;;;;;;;;;4910416;29;19919;-72
2023/12/09 00:45:50;;;;;;;;;;;;;;;;;;4911056;29;20286;-72
2023/12/09 00:48:17;;;;;;;;;;;;;;;;;;4937591;28;20323;-71
2023/12/09 00:50:42;;;;;;;;;;;;;;;;;;4898243;28;19926;-71
2023/12/09 00:53:08;;;;;;;;;;;;;;;;;;4928273;28;19922;-71
2023/12/09 00:55:33;;;;;;;;;;;;;;;;;;4922504;28;19926;-71
2023/12/09 00:57:59;;;;;;;;;;;;;;;;;;4937334;28;19918;-71
2023/12/09 01:00:25;;;;;;;;;;;;;;;;;;4931013;28;20291;-71
2023/12/09 01:02:51;;;;;;;;;;;;;;;;;;4906050;29;19919;-71
2023/12/09 01:05:16;;;;;;;;;;;;;;;;;;4924115;28;19929;-71
2023/12/09 01:07:42;;;;;;;;;;;;;;;;;;4929548;28;19918;-70
2023/12/09 01:10:07;;;;;;;;;;;;;;;;;;4891987;29;20421;-70
2023/12/09 01:12:33;;;;;;;;;;;;;;;;;;4909781;29;19975;-70
2023/12/09 01:14:58;;;;;;;;;;;;;;;;;;4929366;28;19922;-71
2023/12/09 01:17:24;;;;;;;;;;;;;;;;;;4909186;28;20345;-70
2023/12/09 01:19:49;;;;;;;;;;;;;;;;;;4911103;28;19922;-70
2023/12/09 01:22:14;;;;;;;;;;;;;;;;;;4929134;28;19968;-70
2023/12/09 01:24:39;;;;;;;;;;;;;;;;;;4930082;28;19923;-70
2023/12/09 01:27:05;;;;;;;;;;;;;;;;;;4911203;28;20290;-70
2023/12/09 01:29:30;;;;;;;;;;;;;;;;;;4924734;28;20375;-70
2023/12/09 01:31:56;;;;;;;;;;;;;;;;;;4921397;28;20402;-69
2023/12/09 01:34:21;;;;;;;;;;;;;;;;;;4929773;28;19922;-70
2023/12/09 01:36:47;;;;;;;;;;;;;;;;;;4929717;28;19922;-70
2023/12/09 01:39:12;;;;;;;;;;;;;;;;;;4908841;29;19926;-70
2023/12/09 01:41:38;;;;;;;;;;;;;;;;;;4904906;28;19971;-70
2023/12/09 01:44:06;;;;;;;;;;;;;;;;;;4908343;29;20372;-70
2023/12/09 01:46:31;;;;;;;;;;;;;;;;;;4906090;28;20387;-70
2023/12/09 01:48:57;;;;;;;;;;;;;;;;;;4929052;28;19922;-70
2023/12/09 01:51:22;;;;;;;;;;;;;;;;;;4939512;28;20009;-70
2023/12/09 01:53:47;;;;;;;;;;;;;;;;;;4928718;28;20526;-70
2023/12/09 01:56:13;;;;;;;;;;;;;;;;;;4900180;29;19922;-70
2023/12/09 01:58:38;;;;;;;;;;;;;;;;;;4929833;28;20606;-70
2023/12/09 02:01:04;;;;;;;;;;;;;;;;;;4932942;28;20083;-70
2023/12/09 02:03:29;;;;;;;;;;;;;;;;;;4929775;28;20263;-69
2023/12/09 02:05:55;;;;;;;;;;;;;;;;;;4910092;29;19927;-69
2023/12/09 02:08:20;;;;;;;;;;;;;;;;;;4923681;28;20061;-69
2023/12/09 02:10:46;;;;;;;;;;;;;;;;;;4906878;29;20010;-69
2023/12/09 02:13:12;;;;;;;;;;;;;;;;;;4930061;28;19925;-69
2023/12/09 02:15:38;;;;;;;;;;;;;;;;;;4938543;28;19999;-69
2023/12/09 02:18:03;;;;;;;;;;;;;;;;;;4931303;28;19976;-69
2023/12/09 02:20:31;;;;;;;;;;;;;;;;;;4924324;28;19945;-69
2023/12/09 02:22:57;;;;;;;;;;;;;;;;;;4940464;28;19923;-70
2023/12/09 02:25:22;;;;;;;;;;;;;;;;;;4932103;28;19922;-68
2023/12/09 02:27:48;;;;;;;;;;;;;;;;;;4911978;29;19919;-68
2023/12/09 02:30:13;;;;;;;;;;;;;;;;;;4907912;28;19962;-70
2023/12/09 02:32:39;;;;;;;;;;;;;;;;;;4931478;28;20009;-69
2023/12/09 02:35:07;;;;;;;;;;;;;;;;;;4942192;28;20066;-68
2023/12/09 02:37:32;;;;;;;;;;;;;;;;;;4931164;28;19950;-68
2023/12/09 02:39:57;;;;;;;;;;;;;;;;;;4941303;28;20216;-68
2023/12/09 02:42:23;;;;;;;;;;;;;;;;;;4941872;28;20038;-68
2023/12/09 02:44:48;;;;;;;;;;;;;;;;;;4911280;29;19926;-68
2023/12/09 02:47:13;;;;;;;;;;;;;;;;;;4939894;28;20442;-68
2023/12/09 02:49:39;;;;;;;;;;;;;;;;;;4911103;28;20130;-69
2023/12/09 02:52:04;;;;;;;;;;;;;;;;;;4898259;29;20013;-70
2023/12/09 02:54:30;;;;;;;;;;;;;;;;;;4897857;28;19918;-70
2023/12/09 02:56:55;;;;;;;;;;;;;;;;;;4924247;28;19922;-70
2023/12/09 02:59:21;;;;;;;;;;;;;;;;;;4923377;28;19925;-71
2023/12/09 03:01:46;;;;;;;;;;;;;;;;;;4910895;28;20345;-70
2023/12/09 03:04:12;;;;;;;;;;;;;;;;;;4927712;28;19919;-70
2023/12/09 03:06:37;;;;;;;;;;;;;;;;;;4924130;28;19976;-70
2023/12/09 03:09:03;;;;;;;;;;;;;;;;;;4926197;28;19928;-70
2023/12/09 03:11:28;;;;;;;;;;;;;;;;;;4941187;28;19957;-69
2023/12/09 03:13:53;;;;;;;;;;;;;;;;;;4927629;28;19918;-70
2023/12/09 03:16:19;;;;;;;;;;;;;;;;;;4912200;28;20063;-69
2023/12/09 03:18:45;;;;;;;;;;;;;;;;;;4932375;28;19961;-71
2023/12/09 03:21:12;;;;;;;;;;;;;;;;;;4930932;28;20295;-69
2023/12/09 03:23:38;;;;;;;;;;;;;;;;;;4923761;28;20005;-70
2023/12/09 03:26:06;;;;;;;;;;;;;;;;;;4939113;28;20025;-69
2023/12/09 03:28:31;;;;;;;;;;;;;;;;;;4911421;28;20004;-70
2023/12/09 03:30:56;;;;;;;;;;;;;;;;;;4907759;28;19931;-70
2023/12/09 03:33:22;;;;;;;;;;;;;;;;;;4921915;28;19923;-69
2023/12/09 03:35:47;;;;;;;;;;;;;;;;;;4931635;28;19957;-69
2023/12/09 03:38:13;;;;;;;;;;;;;;;;;;4927071;28;19923;-70
2023/12/09 03:40:38;;;;;;;;;;;;;;;;;;4924131;28;19922;-69
2023/12/09 03:43:03;;;;;;;;;;;;;;;;;;4922163;28;20247;-69
2023/12/09 03:45:29;;;;;;;;;;;;;;;;;;4928327;28;20387;-69
2023/12/09 03:47:54;;;;;;;;;;;;;;;;;;4896040;28;19934;-69
2023/12/09 03:50:20;;;;;;;;;;;;;;;;;;4899009;28;19929;-69
2023/12/09 03:52:45;;;;;;;;;;;;;;;;;;4910959;28;20487;-69
2023/12/09 03:55:10;;;;;;;;;;;;;;;;;;4910893;28;20393;-69
2023/12/09 03:57:36;;;;;;;;;;;;;;;;;;4939865;28;20025;-68
2023/12/09 04:00:04;;;;;;;;;;;;;;;;;;4929503;28;19923;-68
2023/12/09 04:02:29;;;;;;;;;;;;;;;;;;4908918;29;20359;-68
2023/12/09 04:04:56;;;;;;;;;;;;;;;;;;4930817;28;19997;-68
2023/12/09 04:07:21;;;;;;;;;;;;;;;;;;4910624;29;21274;-68
2023/12/09 04:09:47;;;;;;;;;;;;;;;;;;4921318;28;20001;-71
2023/12/09 04:12:13;;;;;;;;;;;;;;;;;;4929031;28;19923;-70
2023/12/09 04:14:38;;;;;;;;;;;;;;;;;;4926811;28;20014;-68
2023/12/09 04:17:04;;;;;;;;;;;;;;;;;;4911602;28;20454;-69
2023/12/09 04:19:29;;;;;;;;;;;;;;;;;;4929073;28;19922;-69
2023/12/09 04:21:57;;;;;;;;;;;;;;;;;;4929290;28;20033;-68
2023/12/09 04:24:23;;;;;;;;;;;;;;;;;;4912911;28;20519;-68
2023/12/09 04:26:48;;;;;;;;;;;;;;;;;;4923657;28;19918;-68
2023/12/09 04:29:13;;;;;;;;;;;;;;;;;;4938949;28;19942;-69
2023/12/09 04:31:39;;;;;;;;;;;;;;;;;;4910802;29;19934;-68
2023/12/09 04:34:06;;;;;;;;;;;;;;;;;;4910344;28;19927;-68
2023/12/09 04:36:32;;;;;;;;;;;;;;;;;;4928666;28;20441;-68
2023/12/09 04:38:57;;;;;;;;;;;;;;;;;;4939402;28;19945;-68
2023/12/09 04:41:23;;;;;;;;;;;;;;;;;;4938888;28;19919;-69
2023/12/09 04:43:48;;;;;;;;;;;;;;;;;;4922374;28;20102;-72
2023/12/09 04:46:16;;;;;;;;;;;;;;;;;;4912128;29;19922;-69
2023/12/09 04:48:43;;;;;;;;;;;;;;;;;;4923028;28;19919;-69
2023/12/09 04:51:08;;;;;;;;;;;;;;;;;;4911208;28;20385;-68
2023/12/09 04:53:33;;;;;;;;;;;;;;;;;;4929303;28;19962;-68
2023/12/09 04:55:59;;;;;;;;;;;;;;;;;;4921014;28;19919;-68
2023/12/09 04:58:25;;;;;;;;;;;;;;;;;;4940130;28;19922;-68
2023/12/09 05:00:50;;;;;;;;;;;;;;;;;;4910191;29;19928;-68
2023/12/09 05:03:15;;;;;;;;;;;;;;;;;;4908692;28;19919;-68
2023/12/09 05:05:41;;;;;;;;;;;;;;;;;;4921551;28;19918;-67
2023/12/09 05:08:06;;;;;;;;;;;;;;;;;;4907794;28;20880;-68
2023/12/09 05:10:32;;;;;;;;;;;;;;;;;;4930077;28;19933;-68
2023/12/09 05:12:59;;;;;;;;;;;;;;;;;;4940131;28;20269;-68
2023/12/09 05:15:25;;;;;;;;;;;;;;;;;;4920554;28;20267;-68
2023/12/09 05:17:50;;;;;;;;;;;;;;;;;;4909967;28;19965;-68
2023/12/09 05:20:15;;;;;;;;;;;;;;;;;;4896821;28;19977;-68
2023/12/09 05:22:41;;;;;;;;;;;;;;;;;;4910846;28;19923;-68
2023/12/09 05:25:06;;;;;;;;;;;;;;;;;;4904719;28;20598;-68
2023/12/09 05:27:34;;;;;;;;;;;;;;;;;;4929225;28;19923;-68
2023/12/09 05:29:59;;;;;;;;;;;;;;;;;;4915591;28;19922;-68
2023/12/09 05:32:25;;;;;;;;;;;;;;;;;;4925217;28;20154;-68
2023/12/09 05:34:50;;;;;;;;;;;;;;;;;;4911874;28;19923;-69
2023/12/09 05:37:16;;;;;;;;;;;;;;;;;;4924588;28;19930;-68
2023/12/09 05:39:41;;;;;;;;;;;;;;;;;;4912929;29;20541;-69
2023/12/09 05:42:06;;;;;;;;;;;;;;;;;;4925555;28;19929;-67
2023/12/09 05:44:32;;;;;;;;;;;;;;;;;;4916300;29;19922;-65
2023/12/09 05:46:57;;;;;;;;;;;;;;;;;;4943729;28;20017;-68
2023/12/09 05:49:22;;;;;;;;;;;;;;;;;;4925850;28;20861;-70
2023/12/09 05:51:50;;;;;;;;;;;;;;;;;;4925827;28;20954;-67
2023/12/09 05:54:16;;;;;;;;;;;;;;;;;;4923523;28;19918;-67
2023/12/09 05:56:41;;;;;;;;;;;;;;;;;;4897354;28;20626;-67
2023/12/09 05:59:07;;;;;;;;;;;;;;;;;;4914016;29;20025;-67
2023/12/09 06:01:36;;;;;;;;;;;;;;;;;;4941962;28;19981;-67
2023/12/09 06:04:01;;;;;;;;;;;;;;;;;;4912774;29;19919;-67
2023/12/09 06:06:27;;;;;;;;;;;;;;;;;;4932555;28;20395;-67
2023/12/09 06:08:52;;;;;;;;;;;;;;;;;;4929527;28;19923;-67
2023/12/09 06:11:17;;;;;;;;;;;;;;;;;;4913063;28;19934;-67
2023/12/09 06:13:43;;;;;;;;;;;;;;;;;;4898410;28;19930;-67
2023/12/09 06:16:08;;;;;;;;;;;;;;;;;;4923600;28;19922;-67
2023/12/09 06:21:50;;;;;;;;;;;;;;;;;;4929229;28;20029;-66
2023/12/09 06:24:15;;;;;;;;;;;;;;;;;;4913247;28;19926;-67
2023/12/09 06:26:43;;;;;;;;;;;;;;;;;;4916540;28;19930;-67
2023/12/09 06:29:11;;;;;;;;;;;;;;;;;;4923189;28;19950;-66
2023/12/09 06:34:53;;;;;;;;;;;;;;;;;;4931830;28;20484;-66
2023/12/09 06:37:18;;;;;;;;;;;;;;;;;;4907903;28;19922;-67
2023/12/09 06:39:44;;;;;;;;;;;;;;;;;;4918632;28;19919;-66
2023/12/09 06:42:09;;;;;;;;;;;;;;;;;;4922525;28;19973;-68
2023/12/09 06:44:34;;;;;;;;;;;;;;;;;;4898998;28;19994;-68
2023/12/09 06:47:00;;;;;;;;;;;;;;;;;;4907024;28;19934;-68
2023/12/09 06:49:25;;;;;;;;;;;;;;;;;;4929836;28;19919;-68
2023/12/09 06:51:51;;;;;;;;;;;;;;;;;;4924413;28;20021;-67
2023/12/09 06:54:16;;;;;;;;;;;;;;;;;;4907544;28;19922;-67
2023/12/09 06:56:41;;;;;;;;;;;;;;;;;;4930626;28;19918;-67
2023/12/09 06:59:07;;;;;;;;;;;;;;;;;;4936825;28;20335;-67
2023/12/09 07:01:33;;;;;;;;;;;;;;;;;;4927048;28;19931;-67
2023/12/09 07:03:58;;;;;;;;;;;;;;;;;;4938658;28;19954;-67
2023/12/09 07:06:24;;;;;;;;;;;;;;;;;;4909501;28;20426;-69
2023/12/09 07:08:49;;;;;;;;;;;;;;;;;;4936659;28;19934;-67
2023/12/09 07:11:14;;;;;;;;;;;;;;;;;;4922048;28;19937;-66
2023/12/09 07:13:40;;;;;;;;;;;;;;;;;;4922675;28;19962;-68
2023/12/09 07:16:06;;;;;;;;;;;;;;;;;;4911719;28;20069;-68
2023/12/09 07:18:34;;;;;;;;;;;;;;;;;;4921785;28;19936;-68
2023/12/09 07:20:59;;;;;;;;;;;;;;;;;;4922651;28;20374;-67
2023/12/09 07:23:25;;;;;;;;;;;;;;;;;;4910221;28;19922;-68
2023/12/09 07:25:51;;;;;;;;;;;;;;;;;;4925629;28;20411;-68
2023/12/09 07:28:16;;;;;;;;;;;;;;;;;;4906492;28;19922;-66
2023/12/09 07:30:44;;;;;;;;;;;;;;;;;;4922213;28;20124;-66
2023/12/09 07:33:09;;;;;;;;;;;;;;;;;;4910449;29;20424;-71
2023/12/09 07:35:35;;;;;;;;;;;;;;;;;;4896671;28;19923;-68
2023/12/09 07:38:00;;;;;;;;;;;;;;;;;;4911394;28;20376;-67
2023/12/09 07:40:25;;;;;;;;;;;;;;;;;;4937404;28;20303;-66
2023/12/09 07:42:51;;;;;;;;;;;;;;;;;;4922825;28;19925;-73
2023/12/09 07:45:16;;;;;;;;;;;;;;;;;;4912440;28;19962;-66
2023/12/09 07:47:41;;;;;;;;;;;;;;;;;;4896971;28;19971;-67
2023/12/09 07:50:07;;;;;;;;;;;;;;;;;;4909497;28;20168;-67
2023/12/09 07:52:32;;;;;;;;;;;;;;;;;;4910107;28;20601;-67
2023/12/09 07:54:58;;;;;;;;;;;;;;;;;;4922084;28;19922;-67
2023/12/09 07:57:24;;;;;;;;;;;;;;;;;;4910678;29;19961;-67
2023/12/09 07:59:49;;;;;;;;;;;;;;;;;;4911847;28;19922;-67
2023/12/09 08:02:14;;;;;;;;;;;;;;;;;;4922590;28;20077;-68
2023/12/09 08:04:40;;;;;;;;;;;;;;;;;;4929419;28;19927;-67
2023/12/09 08:07:05;;;;;;;;;;;;;;;;;;4911096;28;19993;-68
2023/12/09 08:09:31;;;;;;;;;;;;;;;;;;4928513;28;19981;-70
2023/12/09 08:11:56;;;;;;;;;;;;;;;;;;4908523;28;19926;-68
2023/12/09 08:14:22;;;;;;;;;;;;;;;;;;4929512;28;20382;-68
2023/12/09 08:16:47;;;;;;;;;;;;;;;;;;4910223;28;22032;-68
2023/12/09 08:19:13;;;;;;;;;;;;;;;;;;4908918;29;19919;-68
2023/12/09 08:21:38;;;;;;;;;;;;;;;;;;4939938;28;19922;-68
2023/12/09 08:24:04;;;;;;;;;;;;;;;;;;4921400;28;19918;-68
2023/12/09 08:26:32;;;;;;;;;;;;;;;;;;4939235;28;20182;-68
2023/12/09 08:28:57;;;;;;;;;;;;;;;;;;4926186;28;19974;-68
2023/12/09 08:31:23;;;;;;;;;;;;;;;;;;4908644;29;19953;-70
2023/12/09 08:33:49;;;;;;;;;;;;;;;;;;4911658;29;19922;-67
2023/12/09 08:36:14;;;;;;;;;;;;;;;;;;4938463;28;21140;-71
2023/12/09 08:38:39;;;;;;;;;;;;;;;;;;4921030;28;19919;-69
2023/12/09 08:41:05;;;;;;;;;;;;;;;;;;4926671;28;19926;-69
2023/12/09 08:43:33;;;;;;;;;;;;;;;;;;4909070;29;20395;-68
2023/12/09 08:45:59;;;;;;;;;;;;;;;;;;4911599;28;19929;-73
2023/12/09 08:48:24;;;;;;;;;;;;;;;;;;4908798;29;19922;-70
2023/12/09 08:50:52;;;;;;;;;;;;;;;;;;4921729;28;19941;-67
2023/12/09 08:53:18;;;;;;;;;;;;;;;;;;4895184;28;20381;-69
2023/12/09 08:55:44;;;;;;;;;;;;;;;;;;4911437;28;19919;-67
2023/12/09 08:58:09;;;;;;;;;;;;;;;;;;4905460;28;19946;-68
2023/12/09 09:00:35;;;;;;;;;;;;;;;;;;4927478;28;20021;-67
2023/12/09 09:03:03;;;;;;;;;;;;;;;;;;4929657;28;19970;-67
2023/12/09 09:05:28;;;;;;;;;;;;;;;;;;4925616;28;19922;-67
2023/12/09 09:07:53;;;;;;;;;;;;;;;;;;4934936;28;19939;-66
2023/12/09 09:10:18;;;;;;;;;;;;;;;;;;4942687;28;19929;-66
2023/12/09 09:12:44;;;;;;;;;;;;;;;;;;4925194;28;20516;-67
2023/12/09 09:15:15;;;;;;;;;;;;;;;;;;4914421;28;19922;-67
2023/12/09 09:17:40;;;;;;;;;;;;;;;;;;4913221;28;19930;-67
2023/12/09 09:20:08;;;;;;;;;;;;;;;;;;4913003;28;20017;-68
2023/12/09 09:22:34;;;;;;;;;;;;;;;;;;4914246;28;20000;-66
2023/12/09 09:24:59;;;;;;;;;;;;;;;;;;4929983;28;19923;-69
2023/12/09 09:27:25;;;;;;;;;;;;;;;;;;4917156;28;19918;-67
2023/12/09 09:29:50;;;;;;;;;;;;;;;;;;4910441;28;19961;-66
2023/12/09 09:32:18;;;;;;;;;;;;;;;;;;4913285;28;19926;-67
2023/12/09 09:34:44;;;;;;;;;;;;;;;;;;4915149;28;20017;-68
2023/12/09 09:37:09;;;;;;;;;;;;;;;;;;4925416;28;20497;-67
2023/12/09 09:39:38;;;;;;;;;;;;;;;;;;4896493;28;19929;-68
2023/12/09 09:42:04;;;;;;;;;;;;;;;;;;4933065;28;20283;-68
2023/12/09 09:44:29;;;;;;;;;;;;;;;;;;4932215;28;20388;-69
2023/12/09 09:46:55;;;;;;;;;;;;;;;;;;4940759;28;19918;-70
2023/12/09 09:49:20;;;;;;;;;;;;;;;;;;4932637;28;20104;-68
2023/12/09 09:51:46;;;;;;;;;;;;;;;;;;4930038;28;19923;-70
2023/12/09 09:54:11;;;;;;;;;;;;;;;;;;4942304;28;19995;-76
2023/12/09 09:56:37;;;;;;;;;;;;;;;;;;4941751;28;20035;-72
2023/12/09 09:59:03;;;;;;;;;;;;;;;;;;4893695;28;19922;-70
2023/12/09 10:01:28;;;;;;;;;;;;;;;;;;4895746;28;19938;-69
2023/12/09 10:03:56;;;;;;;;;;;;;;;;;;4922974;28;21011;-69
2023/12/09 10:06:22;;;;;;;;;;;;;;;;;;4940131;28;19925;-71
2023/12/09 10:08:49;;;;;;;;;;;;;;;;;;4929974;28;19922;-70
2023/12/09 10:11:17;;;;;;;;;;;;;;;;;;4931748;28;20482;-69
2023/12/09 10:13:45;;;;;;;;;;;;;;;;;;4913652;28;19926;-69
2023/12/09 10:16:10;;;;;;;;;;;;;;;;;;4928296;28;20095;-69
2023/12/09 10:18:35;;;;;;;;;;;;;;;;;;4923586;28;19923;-69
2023/12/09 10:21:04;;;;;;;;;;;;;;;;;;4906550;28;20491;-69
2023/12/09 10:23:30;;;;;;;;;;;;;;;;;;4893691;28;19929;-69
2023/12/09 10:25:55;;;;;;;;;;;;;;;;;;4911828;28;19922;-68
2023/12/09 10:28:23;;;;;;;;;;;;;;;;;;4924800;28;20032;-71
2023/12/09 10:30:49;;;;;;;;;;;;;;;;;;4912407;28;19918;-69
2023/12/09 10:33:16;;;;;;;;;;;;;;;;;;4930571;28;19919;-68
2023/12/09 10:35:45;;;;;;;;;;;;;;;;;;4931134;28;19922;-69
2023/12/09 10:38:10;;;;;;;;;;;;;;;;;;4941840;28;20368;-69
2023/12/09 10:40:36;;;;;;;;;;;;;;;;;;4897455;28;20005;-68
2023/12/09 10:43:01;;;;;;;;;;;;;;;;;;4912979;28;20037;-68
2023/12/09 10:45:26;;;;;;;;;;;;;;;;;;4909436;28;20493;-66
2023/12/09 10:47:53;;;;;;;;;;;;;;;;;;4922968;28;20021;-67
2023/12/09 10:50:19;;;;;;;;;;;;;;;;;;4910805;29;20010;-68
2023/12/09 10:52:44;;;;;;;;;;;;;;;;;;4911554;28;19935;-67
2023/12/09 10:55:14;;;;;;;;;;;;;;;;;;4921810;28;19953;-67
2023/12/09 10:57:43;;;;;;;;;;;;;;;;;;4938199;28;19922;-69
2023/12/09 11:00:14;;;;;;;;;;;;;;;;;;4918932;28;19923;-69
2023/12/09 11:02:40;;;;;;;;;;;;;;;;;;4894438;29;20033;-68
2023/12/09 11:05:05;;;;;;;;;;;;;;;;;;4896230;29;19923;-68
2023/12/09 11:07:33;;;;;;;;;;;;;;;;;;4911354;29;20689;-68
2023/12/09 11:09:58;;;;;;;;;;;;;;;;;;4910399;29;19930;-69
2023/12/09 11:12:24;;;;;;;;;;;;;;;;;;4878198;29;19927;-69
2023/12/09 11:14:49;;;;;;;;;;;;;;;;;;4898764;29;19984;-69
2023/12/09 11:17:17;;;;;;;;;;;;;;;;;;4910093;29;19929;-68
2023/12/09 11:19:42;;;;;;;;;;;;;;;;;;4893533;29;19966;-72
2023/12/09 11:22:08;;;;;;;;;;;;;;;;;;4903706;29;20066;-68
2023/12/09 11:24:33;;;;;;;;;;;;;;;;;;4894563;29;19929;-68
2023/12/09 11:26:59;;;;;;;;;;;;;;;;;;4909858;29;20479;-68
2023/12/09 11:29:24;;;;;;;;;;;;;;;;;;4905630;29;19923;-69
2023/12/09 11:31:49;;;;;;;;;;;;;;;;;;4903759;29;19933;-69
2023/12/09 11:34:15;;;;;;;;;;;;;;;;;;4902648;29;20017;-69
2023/12/09 11:36:40;;;;;;;;;;;;;;;;;;4893146;29;19921;-69
2023/12/09 11:39:06;;;;;;;;;;;;;;;;;;4903267;29;20387;-69
2023/12/09 11:41:32;;;;;;;;;;;;;;;;;;4901970;29;20559;-72
2023/12/09 11:44:00;;;;;;;;;;;;;;;;;;4890931;29;19929;-70
2023/12/09 11:46:26;;;;;;;;;;;;;;;;;;4905268;29;19923;-69
2023/12/09 11:48:51;;;;;;;;;;;;;;;;;;4893288;29;19923;-68
2023/12/09 11:51:18;;;;;;;;;;;;;;;;;;4894911;29;19962;-73
2023/12/09 11:53:43;;;;;;;;;;;;;;;;;;4909255;29;20331;-68
2023/12/09 11:56:09;;;;;;;;;;;;;;;;;;4893003;29;19966;-68
2023/12/09 11:58:34;;;;;;;;;;;;;;;;;;4894104;29;19918;-68
2023/12/09 12:01:00;;;;;;;;;;;;;;;;;;4901294;28;20397;-69
2023/12/09 12:03:25;;;;;;;;;;;;;;;;;;4903932;29;19958;-69
2023/12/09 12:05:51;;;;;;;;;;;;;;;;;;4892882;29;19922;-68
2023/12/09 12:08:16;;;;;;;;;;;;;;;;;;4879597;29;19926;-68
2023/12/09 12:10:42;;;;;;;;;;;;;;;;;;4903507;29;20442;-68
2023/12/09 12:13:07;;;;;;;;;;;;;;;;;;4902845;29;20449;-68
2023/12/09 12:15:33;;;;;;;;;;;;;;;;;;4909085;29;20500;-67
2023/12/09 12:17:58;;;;;;;;;;;;;;;;;;4893945;29;20126;-69
2023/12/09 12:20:24;;;;;;;;;;;;;;;;;;4910819;29;20029;-68
2023/12/09 12:22:49;;;;;;;;;;;;;;;;;;4901494;29;19965;-68
2023/12/09 12:25:14;;;;;;;;;;;;;;;;;;4904697;29;19926;-69
2023/12/09 12:27:42;;;;;;;;;;;;;;;;;;4919398;28;19923;-68
2023/12/09 12:30:08;;;;;;;;;;;;;;;;;;4903300;29;19922;-69
2023/12/09 12:32:35;;;;;;;;;;;;;;;;;;4920132;28;19933;-68
2023/12/09 12:35:01;;;;;;;;;;;;;;;;;;4909993;29;19919;-68
2023/12/09 12:37:26;;;;;;;;;;;;;;;;;;4892070;29;20049;-69
2023/12/09 12:39:52;;;;;;;;;;;;;;;;;;4892980;29;19946;-68
2023/12/09 12:42:20;;;;;;;;;;;;;;;;;;4918633;28;20519;-68
2023/12/09 12:44:46;;;;;;;;;;;;;;;;;;4903303;29;20430;-68
2023/12/09 12:47:11;;;;;;;;;;;;;;;;;;4903617;29;19978;-71
2023/12/09 12:49:37;;;;;;;;;;;;;;;;;;4907832;29;20387;-68
2023/12/09 12:52:03;;;;;;;;;;;;;;;;;;4907916;29;19922;-67
2023/12/09 12:54:28;;;;;;;;;;;;;;;;;;4904466;29;19923;-67
2023/12/09 12:56:54;;;;;;;;;;;;;;;;;;4904364;29;20299;-67
2023/12/09 12:59:19;;;;;;;;;;;;;;;;;;4908754;29;19922;-72
2023/12/09 13:01:45;;;;;;;;;;;;;;;;;;4901836;28;19942;-68
2023/12/09 13:04:10;;;;;;;;;;;;;;;;;;4875927;29;19953;-68
2023/12/09 13:06:35;;;;;;;;;;;;;;;;;;4891603;29;19934;-69
2023/12/09 13:09:03;;;;;;;;;;;;;;;;;;4902026;29;20284;-69
2023/12/09 13:11:31;;;;;;;;;;;;;;;;;;4893447;29;19927;-67
2023/12/09 13:13:57;;;;;;;;;;;;;;;;;;4918501;28;19950;-69
2023/12/09 13:16:25;;;;;;;;;;;;;;;;;;4908074;29;19942;-67
2023/12/09 13:18:53;;;;;;;;;;;;;;;;;;4889635;29;19930;-69
2023/12/09 13:21:18;;;;;;;;;;;;;;;;;;4909169;29;20357;-69
2023/12/09 13:23:44;;;;;;;;;;;;;;;;;;4890167;29;21517;-69
2023/12/09 13:26:09;;;;;;;;;;;;;;;;;;4909617;29;19926;-69
2023/12/09 13:28:35;;;;;;;;;;;;;;;;;;4918106;28;20057;-68
2023/12/09 13:31:03;;;;;;;;;;;;;;;;;;4892753;29;19942;-69
2023/12/09 13:33:28;;;;;;;;;;;;;;;;;;4876592;29;20438;-71
2023/12/09 13:35:56;;;;;;;;;;;;;;;;;;4879985;29;19930;-68
2023/12/09 13:38:21;;;;;;;;;;;;;;;;;;4892953;29;19923;-68
2023/12/09 13:40:47;;;;;;;;;;;;;;;;;;4900949;29;19929;-70
2023/12/09 13:43:12;;;;;;;;;;;;;;;;;;4872470;29;20478;-68
2023/12/09 13:45:38;;;;;;;;;;;;;;;;;;4902576;29;19954;-71
2023/12/09 13:48:03;;;;;;;;;;;;;;;;;;4893110;29;19923;-69
2023/12/09 13:50:31;;;;;;;;;;;;;;;;;;4897689;29;19994;-68
2023/12/09 13:52:56;;;;;;;;;;;;;;;;;;4893244;29;20331;-72
2023/12/09 13:55:23;;;;;;;;;;;;;;;;;;4883001;29;20280;-68
2023/12/09 13:57:49;;;;;;;;;;;;;;;;;;4894242;29;19927;-68
2023/12/09 14:00:16;;;;;;;;;;;;;;;;;;4905079;28;19918;-68
2023/12/09 14:02:43;;;;;;;;;;;;;;;;;;4903439;29;19993;-71
2023/12/09 14:05:09;;;;;;;;;;;;;;;;;;4904577;29;19930;-69
2023/12/09 14:07:34;;;;;;;;;;;;;;;;;;4891913;29;20021;-70
2023/12/09 14:09:59;;;;;;;;;;;;;;;;;;4906667;28;20006;-69
2023/12/09 14:12:25;;;;;;;;;;;;;;;;;;4923328;28;20319;-69
2023/12/09 14:14:50;;;;;;;;;;;;;;;;;;4894699;29;20367;-70
2023/12/09 14:17:16;;;;;;;;;;;;;;;;;;4890354;29;19922;-69
2023/12/09 14:19:41;;;;;;;;;;;;;;;;;;4896717;29;19962;-69
2023/12/09 14:22:09;;;;;;;;;;;;;;;;;;4910131;29;20517;-69
2023/12/09 14:24:35;;;;;;;;;;;;;;;;;;4877499;29;20379;-72
2023/12/09 14:27:01;;;;;;;;;;;;;;;;;;4906384;29;20488;-76
2023/12/09 14:29:26;;;;;;;;;;;;;;;;;;4889478;29;19962;-73
2023/12/09 14:31:54;;;;;;;;;;;;;;;;;;4907200;28;19986;-77
2023/12/09 14:34:20;;;;;;;;;;;;;;;;;;4909053;29;19922;-78
2023/12/09 14:36:45;;;;;;;;;;;;;;;;;;4894689;29;19923;-74
2023/12/09 14:39:11;;;;;;;;;;;;;;;;;;4893424;29;20026;-79
2023/12/09 14:41:48;;;;;;;;;;;;;;;;;;4897071;29;20340;-78
2023/12/09 14:44:14;;;;;;;;;;;;;;;;;;4911849;29;20023;-74
2023/12/09 14:46:39;;;;;;;;;;;;;;;;;;4894877;29;19927;-75
2023/12/09 14:49:04;;;;;;;;;;;;;;;;;;4912077;29;19919;-73
2023/12/09 14:51:30;;;;;;;;;;;;;;;;;;4898407;29;19927;-76
2023/12/09 14:53:55;;;;;;;;;;;;;;;;;;4905772;29;20113;-76
2023/12/09 14:59:38;;;;;;;;;;;;;;;;;;4909324;28;19955;-74
2023/12/09 15:02:03;;;;;;;;;;;;;;;;;;4912732;28;20021;-72
2023/12/09 15:04:30;;;;;;;;;;;;;;;;;;4896105;28;20532;-73
2023/12/09 15:06:55;;;;;;;;;;;;;;;;;;4925634;28;20012;-74
2023/12/09 15:09:20;;;;;;;;;;;;;;;;;;4929993;28;20639;-73
2023/12/09 15:11:48;;;;;;;;;;;;;;;;;;4923716;28;19922;-73
2023/12/09 15:14:13;;;;;;;;;;;;;;;;;;4931689;28;19918;-72
2023/12/09 15:16:38;;;;;;;;;;;;;;;;;;4931471;28;20051;-73
2023/12/09 15:19:06;;;;;;;;;;;;;;;;;;4928721;28;20355;-69
2023/12/09 15:21:32;;;;;;;;;;;;;;;;;;4925563;28;19918;-71
2023/12/09 15:23:57;;;;;;;;;;;;;;;;;;4900212;28;19923;-73
2023/12/09 15:26:26;;;;;;;;;;;;;;;;;;4896065;28;20014;-68
2023/12/09 15:28:53;;;;;;;;;;;;;;;;;;4926500;28;19914;-70
2023/12/09 15:31:18;;;;;;;;;;;;;;;;;;4897975;28;20260;-69
2023/12/09 15:33:44;;;;;;;;;;;;;;;;;;4942164;28;19930;-72
2023/12/09 15:36:12;;;;;;;;;;;;;;;;;;4917217;29;19923;-68
2023/12/09 15:38:38;;;;;;;;;;;;;;;;;;4900681;29;19915;-71
2023/12/09 15:41:06;;;;;;;;;;;;;;;;;;4899139;29;19973;-72
2023/12/09 15:43:31;;;;;;;;;;;;;;;;;;4899291;28;19919;-71
2023/12/09 15:45:56;;;;;;;;;;;;;;;;;;4913675;29;19919;-73
2023/12/09 15:48:23;;;;;;;;;;;;;;;;;;4913730;28;19966;-75
2023/12/09 15:50:48;;;;;;;;;;;;;;;;;;4911566;29;19929;-73
2023/12/09 15:53:13;;;;;;;;;;;;;;;;;;4926063;28;19953;-73
2023/12/09 15:55:39;;;;;;;;;;;;;;;;;;4912507;28;19946;-72
2023/12/09 15:58:06;;;;;;;;;;;;;;;;;;4932360;28;19930;-69
2023/12/09 16:00:33;;;;;;;;;;;;;;;;;;4930192;28;19927;-71
2023/12/09 16:03:01;;;;;;;;;;;;;;;;;;4909065;28;19926;-69
2023/12/09 16:05:26;;;;;;;;;;;;;;;;;;4909284;29;19993;-71
2023/12/09 16:07:52;;;;;;;;;;;;;;;;;;4940805;28;19966;-70
2023/12/09 16:10:20;;;;;;;;;;;;;;;;;;4910816;29;19969;-68
2023/12/09 16:12:45;;;;;;;;;;;;;;;;;;4930533;28;19922;-67
2023/12/09 16:15:10;;;;;;;;;;;;;;;;;;4905408;29;19992;-68
2023/12/09 16:17:36;;;;;;;;;;;;;;;;;;4929682;28;19922;-69
2023/12/09 16:20:04;;;;;;;;;;;;;;;;;;4929667;28;19962;-67
2023/12/09 16:22:29;;;;;;;;;;;;;;;;;;4899145;28;19961;-69
2023/12/09 16:24:55;;;;;;;;;;;;;;;;;;4891740;29;20021;-72
2023/12/09 16:27:20;;;;;;;;;;;;;;;;;;4917513;28;19976;-70
2023/12/09 16:29:45;;;;;;;;;;;;;;;;;;4924816;28;20518;-68
2023/12/09 16:32:11;;;;;;;;;;;;;;;;;;4906298;28;19926;-66
2023/12/09 16:34:36;;;;;;;;;;;;;;;;;;4924450;28;20026;-70
2023/12/09 16:37:02;;;;;;;;;;;;;;;;;;4911640;28;21424;-76
2023/12/09 16:39:28;;;;;;;;;;;;;;;;;;4929501;28;19927;-67
2023/12/09 16:41:54;;;;;;;;;;;;;;;;;;4924435;28;20560;-69
2023/12/09 16:44:22;;;;;;;;;;;;;;;;;;4911801;28;19919;-68
2023/12/09 16:46:50;;;;;;;;;;;;;;;;;;4940766;28;19941;-71
2023/12/09 16:49:16;;;;;;;;;;;;;;;;;;4923174;28;20259;-68
2023/12/09 16:51:42;;;;;;;;;;;;;;;;;;4939881;28;19959;-69